createdAt,value
2023-01-27T00:00:56.318Z,1.50
2023-01-27T00:03:23.847Z,0.93
2023-01-27T00:05:51.376Z,0.87
2023-01-27T00:08:18.927Z,1.77
2023-01-27T00:10:46.327Z,0.90
2023-01-27T00:13:33.773Z,1.57
2023-01-27T00:16:00.868Z,1.20
2023-01-27T00:18:28.055Z,1.57
2023-01-27T00:21:13.824Z,1.13
2023-01-27T00:23:59.570Z,0.83
2023-01-27T00:26:26.727Z,1.03
2023-01-27T00:28:53.787Z,1.00
2023-01-27T00:31:39.209Z,1.27
2023-01-27T00:34:12.078Z,1.00
2023-01-27T00:36:41.385Z,0.83
2023-01-27T00:39:10.686Z,1.10
2023-01-27T00:41:38.937Z,1.37
2023-01-27T00:44:06.474Z,0.93
2023-01-27T00:46:34.918Z,1.50
2023-01-27T00:49:02.062Z,1.63
2023-01-27T00:51:29.163Z,0.93
2023-01-27T00:53:56.246Z,2.33
2023-01-27T00:56:23.346Z,1.00
2023-01-27T00:58:50.512Z,0.90
2023-01-27T01:01:17.786Z,0.70
2023-01-27T01:03:45.178Z,1.10
2023-01-27T01:06:15.036Z,0.93
2023-01-27T01:08:42.663Z,0.80
2023-01-27T01:11:13.619Z,1.07
2023-01-27T01:13:42.140Z,0.80
2023-01-27T01:16:15.885Z,0.60
2023-01-27T01:18:43.532Z,0.73
2023-01-27T01:21:11.655Z,1.87
2023-01-27T01:23:43.633Z,1.00
2023-01-27T01:26:15.897Z,0.90
2023-01-27T01:28:49.256Z,0.80
2023-01-27T01:31:19.977Z,0.63
2023-01-27T01:33:48.343Z,0.80
2023-01-27T01:36:20.659Z,0.80
2023-01-27T01:38:50.799Z,0.73
2023-01-27T01:41:20.732Z,1.10
2023-01-27T01:43:49.497Z,0.90
2023-01-27T01:46:17.587Z,0.80
2023-01-27T01:48:49.779Z,1.00
2023-01-27T01:51:25.078Z,1.13
2023-01-27T01:54:25.994Z,0.90
2023-01-27T01:57:05.232Z,0.97
2023-01-27T01:59:36.630Z,1.00
2023-01-27T02:02:07.283Z,1.17
2023-01-27T02:04:45.238Z,1.40
2023-01-27T02:07:26.661Z,1.10
2023-01-27T02:09:57.449Z,1.17
2023-01-27T02:12:24.495Z,1.80
2023-01-27T02:14:51.837Z,1.13
2023-01-27T02:17:18.890Z,1.37
2023-01-27T02:20:01.029Z,1.70
2023-01-27T02:22:39.713Z,1.60
2023-01-27T02:25:36.718Z,1.07
2023-01-27T02:28:06.256Z,1.20
2023-01-27T02:30:34.136Z,1.17
2023-01-27T02:33:01.346Z,1.57
2023-01-27T02:35:36.889Z,1.33
2023-01-27T02:38:09.245Z,1.23
2023-01-27T02:40:37.952Z,1.50
2023-01-27T02:43:05.691Z,1.20
2023-01-27T02:45:32.741Z,1.30
2023-01-27T02:48:00.177Z,1.20
2023-01-27T02:50:27.374Z,1.60
2023-01-27T02:52:54.431Z,1.10
2023-01-27T02:55:21.624Z,1.80
2023-01-27T02:57:48.895Z,0.93
2023-01-27T03:00:16.178Z,1.30
2023-01-27T03:02:45.816Z,1.00
2023-01-27T03:05:14.317Z,1.30
2023-01-27T03:07:42.421Z,1.07
2023-01-27T03:10:10.567Z,1.50
2023-01-27T03:12:37.663Z,0.93
2023-01-27T03:15:23.759Z,1.33
2023-01-27T03:18:09.555Z,0.93
2023-01-27T03:20:36.587Z,0.93
2023-01-27T03:23:04.009Z,0.80
2023-01-27T03:25:31.107Z,1.30
2023-01-27T03:27:58.215Z,1.10
2023-01-27T03:30:25.574Z,1.10
2023-01-27T03:32:52.606Z,1.33
2023-01-27T03:35:20.403Z,1.40
2023-01-27T03:38:10.237Z,1.83
2023-01-27T03:40:56.151Z,1.20
2023-01-27T03:43:41.903Z,1.40
2023-01-27T03:46:20.762Z,1.87
2023-01-27T03:48:55.893Z,1.07
2023-01-27T03:51:25.074Z,1.03
2023-01-27T03:53:53.040Z,1.20
2023-01-27T03:56:21.888Z,1.10
2023-01-27T03:58:50.904Z,1.20
2023-01-27T04:01:22.683Z,1.53
2023-01-27T04:04:09.726Z,1.27
2023-01-27T04:06:55.377Z,1.37
2023-01-27T04:09:34.592Z,1.40
2023-01-27T04:12:04.939Z,1.53
2023-01-27T04:14:32.053Z,1.00
2023-01-27T04:17:01.998Z,0.90
2023-01-27T04:19:29.740Z,1.20
2023-01-27T04:21:58.122Z,1.10
2023-01-27T04:24:28.663Z,1.47
2023-01-27T04:27:08.077Z,1.23
2023-01-27T04:29:38.815Z,2.50
2023-01-27T04:32:06.755Z,1.57
2023-01-27T04:34:33.905Z,1.03
2023-01-27T04:37:03.590Z,1.13
2023-01-27T04:39:30.625Z,1.00
2023-01-27T04:41:58.230Z,1.30
2023-01-27T04:44:25.649Z,0.90
2023-01-27T04:46:54.214Z,1.30
2023-01-27T04:49:21.376Z,0.90
2023-01-27T04:51:48.551Z,1.13
2023-01-27T04:54:15.643Z,1.00
2023-01-27T04:56:55.151Z,1.00
2023-01-27T04:59:22.283Z,1.20
2023-01-27T05:01:49.717Z,1.03
2023-01-27T05:04:19.362Z,1.20
2023-01-27T05:06:46.380Z,1.30
2023-01-27T05:09:13.513Z,1.27
2023-01-27T05:11:40.606Z,1.23
2023-01-27T05:14:07.600Z,1.30
2023-01-27T05:16:34.813Z,1.53
2023-01-27T05:19:02.270Z,1.40
2023-01-27T05:21:30.983Z,1.70
2023-01-27T05:23:58.140Z,1.70
2023-01-27T05:26:27.608Z,1.90
2023-01-27T05:28:57.318Z,1.80
2023-01-27T05:31:27.114Z,1.73
2023-01-27T05:33:56.146Z,2.00
2023-01-27T05:36:25.452Z,1.90
2023-01-27T05:38:53.885Z,1.63
2023-01-27T05:41:21.918Z,1.70
2023-01-27T05:43:54.154Z,1.83
2023-01-27T05:46:26.437Z,3.00
2023-01-27T05:48:55.840Z,1.70
2023-01-27T05:51:25.085Z,1.93
2023-01-27T05:53:53.609Z,1.67
2023-01-27T05:56:21.270Z,1.50
2023-01-27T05:58:48.279Z,2.17
2023-01-27T06:01:21.201Z,1.57
2023-01-27T06:03:48.922Z,1.10
2023-01-27T06:06:19.803Z,1.20
2023-01-27T06:08:48.044Z,1.40
2023-01-27T06:11:15.860Z,1.27
2023-01-27T06:13:42.913Z,1.50
2023-01-27T06:16:13.568Z,1.10
2023-01-27T06:18:41.383Z,0.90
2023-01-27T06:21:11.147Z,1.23
2023-01-27T06:23:39.101Z,1.13
2023-01-27T06:26:12.070Z,1.10
2023-01-27T06:28:39.912Z,1.20
2023-01-27T06:31:12.889Z,0.93
2023-01-27T06:33:39.948Z,1.10
2023-01-27T06:36:10.419Z,1.20
2023-01-27T06:38:37.772Z,1.47
2023-01-27T06:41:05.318Z,0.93
2023-01-27T06:43:32.504Z,0.90
2023-01-27T06:46:00.202Z,0.80
2023-01-27T06:48:27.958Z,1.10
2023-01-27T06:50:55.823Z,0.90
2023-01-27T06:53:23.395Z,0.87
2023-01-27T06:55:57.644Z,0.80
2023-01-27T06:58:25.438Z,0.93
2023-01-27T07:00:52.659Z,0.80
2023-01-27T07:03:19.816Z,1.00
2023-01-27T07:05:46.886Z,0.87
2023-01-27T07:08:14.303Z,0.90
2023-01-27T07:10:41.588Z,0.97
2023-01-27T07:13:10.789Z,1.10
2023-01-27T07:15:39.088Z,0.90
2023-01-27T07:18:06.749Z,1.00
2023-01-27T07:20:34.135Z,1.00
2023-01-27T07:23:03.481Z,0.93
2023-01-27T07:25:32.353Z,1.23
2023-01-27T07:28:01.232Z,0.70
2023-01-27T07:30:29.213Z,1.00
2023-01-27T07:32:56.383Z,0.80
2023-01-27T07:35:26.746Z,0.90
2023-01-27T07:37:53.683Z,0.80
2023-01-27T07:40:20.840Z,0.90
2023-01-27T07:42:47.854Z,0.80
2023-01-27T07:45:15.008Z,0.90
2023-01-27T07:47:42.057Z,0.90
2023-01-27T07:50:09.774Z,0.87
2023-01-27T07:52:36.807Z,0.90
2023-01-27T07:55:03.973Z,0.87
2023-01-27T07:57:30.955Z,0.93
2023-01-27T07:59:58.029Z,1.00
2023-01-27T08:02:26.083Z,0.90
2023-01-27T08:04:53.954Z,4.53
2023-01-27T08:07:25.766Z,19.80
2023-01-27T08:10:01.281Z,32.50
2023-01-27T08:12:30.257Z,39.90
2023-01-27T08:14:57.284Z,29.30
2023-01-27T08:17:24.440Z,26.00
2023-01-27T08:19:55.550Z,22.80
2023-01-27T08:22:31.845Z,18.83
2023-01-27T08:25:00.931Z,12.47
2023-01-27T08:27:30.672Z,14.00
2023-01-27T08:29:58.141Z,9.07
2023-01-27T08:32:25.203Z,8.23
2023-01-27T08:34:52.283Z,7.53
2023-01-27T08:37:19.284Z,5.50
2023-01-27T08:39:46.327Z,5.47
2023-01-27T08:42:13.503Z,5.70
2023-01-27T08:44:40.637Z,5.03
2023-01-27T08:47:07.697Z,4.40
2023-01-27T08:49:34.956Z,4.20
2023-01-27T08:52:04.367Z,4.10
2023-01-27T08:54:31.393Z,4.30
2023-01-27T08:56:58.446Z,4.10
2023-01-27T08:59:25.523Z,2.83
2023-01-27T09:01:52.576Z,3.33
2023-01-27T09:04:24.340Z,3.87
2023-01-27T09:06:54.418Z,2.47
2023-01-27T09:09:21.506Z,3.47
2023-01-27T09:11:48.609Z,3.07
2023-01-27T09:14:15.707Z,3.10
2023-01-27T09:16:42.793Z,2.40
2023-01-27T09:19:09.805Z,3.13
2023-01-27T09:21:36.857Z,2.57
2023-01-27T09:24:04.024Z,3.03
2023-01-27T09:26:31.559Z,2.50
2023-01-27T09:28:58.712Z,2.20
2023-01-27T09:31:25.919Z,1.80
2023-01-27T09:33:52.977Z,1.80
2023-01-27T09:36:22.099Z,2.00
2023-01-27T09:38:59.948Z,1.83
2023-01-27T09:41:44.993Z,1.60
2023-01-27T09:44:39.964Z,1.60
2023-01-27T09:47:24.517Z,1.67
2023-01-27T09:50:22.337Z,1.60
2023-01-27T09:53:18.780Z,2.53
2023-01-27T09:56:03.816Z,1.40
2023-01-27T09:58:58.237Z,1.50
2023-01-27T10:01:39.304Z,1.47
2023-01-27T10:04:36.226Z,2.03
2023-01-27T10:07:28.125Z,1.30
2023-01-27T10:10:01.350Z,1.50
2023-01-27T10:12:58.623Z,1.40
2023-01-27T10:15:53.923Z,1.73
2023-01-27T10:18:42.179Z,1.50
2023-01-27T10:21:26.639Z,1.83
2023-01-27T10:24:15.044Z,1.30
2023-01-27T10:26:49.966Z,1.70
2023-01-27T10:29:41.237Z,1.67
2023-01-27T10:32:14.208Z,1.60
2023-01-27T10:35:13.993Z,1.23
2023-01-27T10:37:50.032Z,1.80
2023-01-27T10:40:34.092Z,1.30
2023-01-27T10:43:36.029Z,1.80
2023-01-27T10:46:36.104Z,1.80
2023-01-27T10:49:26.738Z,1.50
2023-01-27T10:51:59.573Z,1.40
2023-01-27T10:54:50.657Z,1.73
2023-01-27T10:57:29.366Z,1.27
2023-01-27T11:03:59.598Z,1.70
2023-01-27T11:06:34.407Z,1.90
2023-01-27T11:09:27.804Z,1.63
2023-01-27T11:11:58.751Z,1.13
2023-01-27T11:14:29.434Z,1.73
2023-01-27T11:17:31.797Z,1.70
2023-01-27T11:20:02.887Z,1.77
2023-01-27T11:22:46.836Z,1.47
2023-01-27T11:25:25.723Z,2.30
2023-01-27T11:28:04.383Z,2.03
2023-01-27T11:30:44.500Z,2.33
2023-01-27T11:33:31.583Z,1.33
2023-01-27T11:35:58.631Z,2.67
2023-01-27T11:38:25.702Z,2.20
2023-01-27T11:40:54.203Z,1.47
2023-01-27T11:43:25.704Z,1.87
2023-01-27T11:45:57.932Z,1.50
2023-01-27T11:48:26.580Z,2.00
2023-01-27T11:50:53.619Z,1.63
2023-01-27T11:53:36.862Z,1.60
2023-01-27T11:56:08.544Z,1.90
2023-01-27T11:59:03.527Z,1.53
2023-01-27T12:02:02.818Z,1.80
2023-01-27T12:04:38.965Z,2.13
2023-01-27T12:07:27.891Z,1.90
2023-01-27T12:09:54.995Z,1.80
2023-01-27T12:12:25.200Z,2.00
2023-01-27T12:14:56.199Z,1.80
2023-01-27T12:17:35.650Z,1.73
2023-01-27T12:20:07.645Z,1.90
2023-01-27T12:22:38.927Z,1.80
2023-01-27T12:25:14.517Z,1.53
2023-01-27T12:27:49.251Z,1.63
2023-01-27T12:30:31.639Z,1.40
2023-01-27T12:32:59.604Z,1.40
2023-01-27T12:35:30.868Z,1.53
2023-01-27T12:38:20.328Z,1.83
2023-01-27T12:40:48.850Z,1.40
2023-01-27T12:43:21.652Z,1.50
2023-01-27T12:46:11.719Z,1.47
2023-01-27T12:48:50.113Z,2.03
2023-01-27T12:51:21.789Z,1.93
2023-01-27T12:53:50.769Z,1.50
2023-01-27T12:56:22.023Z,1.60
2023-01-27T12:58:54.799Z,2.03
2023-01-27T13:01:27.408Z,1.70
2023-01-27T13:04:01.456Z,1.83
2023-01-27T13:06:42.673Z,1.70
2023-01-27T13:09:30.351Z,1.40
2023-01-27T13:12:00.615Z,1.53
2023-01-27T13:14:43.290Z,1.93
2023-01-27T13:17:45.805Z,1.60
2023-01-27T13:20:28.339Z,1.60
2023-01-27T13:23:19.185Z,1.80
2023-01-27T13:25:59.364Z,1.33
2023-01-27T13:28:39.669Z,1.47
2023-01-27T13:31:29.916Z,1.80
2023-01-27T13:34:34.172Z,1.90
2023-01-27T13:37:19.422Z,1.97
2023-01-27T13:39:55.483Z,1.87
2023-01-27T13:42:35.038Z,1.50
2023-01-27T13:45:14.389Z,1.73
2023-01-27T13:47:53.452Z,1.80
2023-01-27T13:50:37.943Z,1.50
2023-01-27T13:53:06.136Z,1.70
2023-01-27T13:56:03.614Z,1.60
2023-01-27T13:58:44.625Z,1.40
2023-01-27T14:01:24.275Z,1.53
2023-01-27T14:04:36.948Z,1.40
2023-01-27T14:07:29.189Z,2.17
2023-01-27T14:10:33.909Z,1.60
2023-01-27T14:13:30.689Z,1.40
2023-01-27T14:16:16.003Z,1.53
2023-01-27T14:19:05.803Z,1.67
2023-01-27T14:21:47.808Z,1.40
2023-01-27T14:25:03.153Z,1.97
2023-01-27T14:27:42.670Z,1.93
2023-01-27T14:30:15.635Z,1.70
2023-01-27T14:32:58.189Z,1.43
2023-01-27T14:35:37.238Z,1.50
2023-01-27T14:38:27.297Z,1.30
2023-01-27T14:41:19.906Z,1.30
2023-01-27T14:44:44.357Z,1.50
2023-01-27T14:47:42.187Z,1.80
2023-01-27T14:50:25.105Z,1.80
2023-01-27T14:53:02.677Z,1.87
2023-01-27T14:55:51.856Z,1.57
2023-01-27T14:58:39.140Z,1.87
2023-01-27T15:01:20.965Z,1.60
2023-01-27T15:04:18.710Z,1.97
2023-01-27T15:07:19.692Z,2.10
2023-01-27T15:10:24.685Z,1.93
2023-01-27T15:13:29.961Z,1.53
2023-01-27T15:16:15.940Z,2.50
2023-01-27T15:19:25.873Z,2.03
2023-01-27T15:22:31.120Z,2.60
2023-01-27T15:25:18.322Z,3.37
2023-01-27T15:27:47.399Z,3.60
2023-01-27T15:30:25.726Z,3.27
2023-01-27T15:32:53.125Z,2.80
2023-01-27T15:35:28.499Z,3.10
2023-01-27T15:37:59.661Z,2.57
2023-01-27T15:40:27.733Z,2.53
2023-01-27T15:43:00.860Z,2.90
2023-01-27T15:45:37.776Z,3.20
2023-01-27T15:48:12.506Z,2.80
2023-01-27T15:51:01.227Z,2.33
2023-01-27T15:53:39.257Z,2.03
2023-01-27T15:56:06.692Z,2.83
2023-01-27T15:59:06.071Z,2.47
2023-01-27T16:01:36.161Z,2.00
2023-01-27T16:04:28.107Z,2.37
2023-01-27T16:07:04.364Z,2.30
2023-01-27T16:09:40.421Z,1.90
2023-01-27T16:12:39.530Z,2.20
2023-01-27T16:15:15.995Z,2.30
2023-01-27T16:18:07.334Z,1.33
2023-01-27T16:21:03.480Z,2.47
2023-01-27T16:23:43.536Z,2.00
2023-01-27T16:26:42.735Z,1.77
2023-01-27T16:29:12.529Z,2.10
2023-01-27T16:31:43.264Z,1.90
2023-01-27T16:34:40.051Z,1.83
2023-01-27T16:37:34.760Z,1.40
2023-01-27T16:40:22.574Z,2.13
2023-01-27T16:42:52.584Z,1.40
2023-01-27T16:45:26.109Z,2.03
2023-01-27T16:48:00.794Z,1.90
2023-01-27T16:50:31.934Z,1.50
2023-01-27T16:53:00.027Z,2.23
2023-01-27T16:55:27.494Z,1.80
2023-01-27T16:57:55.599Z,3.37
2023-01-27T17:00:31.860Z,2.13
2023-01-27T17:03:02.960Z,3.10
2023-01-27T17:05:30.674Z,3.80
2023-01-27T17:08:16.372Z,3.40
2023-01-27T17:10:52.345Z,3.60
2023-01-27T17:13:35.090Z,5.70
2023-01-27T17:16:06.281Z,4.97
2023-01-27T17:18:51.875Z,6.17
2023-01-27T17:21:37.029Z,6.50
2023-01-27T17:24:13.001Z,7.83
2023-01-27T17:26:49.285Z,7.90
2023-01-27T17:29:21.931Z,6.80
2023-01-27T17:31:49.830Z,7.90
2023-01-27T17:34:19.699Z,6.90
2023-01-27T17:37:19.267Z,8.43
2023-01-27T17:39:47.629Z,7.70
2023-01-27T17:42:17.215Z,6.73
2023-01-27T17:44:48.252Z,6.87
2023-01-27T17:47:20.164Z,6.60
2023-01-27T17:49:49.475Z,7.00
2023-01-27T17:52:23.164Z,6.87
2023-01-27T17:54:51.574Z,7.00
2023-01-27T17:57:27.215Z,11.97
2023-01-27T18:00:10.803Z,16.63
2023-01-27T18:02:56.589Z,14.67
2023-01-27T18:05:30.999Z,13.23
2023-01-27T18:07:58.491Z,13.73
2023-01-27T18:10:44.110Z,12.67
2023-01-27T18:13:20.194Z,12.70
2023-01-27T18:15:51.418Z,9.97
2023-01-27T18:18:27.274Z,10.00
2023-01-27T18:21:02.912Z,10.20
2023-01-27T18:23:43.389Z,9.17
2023-01-27T18:26:27.111Z,9.57
2023-01-27T18:29:22.778Z,8.77
2023-01-27T18:31:53.119Z,8.20
2023-01-27T18:34:34.057Z,8.27
2023-01-27T18:37:21.042Z,9.13
2023-01-27T18:39:48.221Z,8.40
2023-01-27T18:42:17.850Z,8.30
2023-01-27T18:44:45.123Z,6.50
2023-01-27T18:47:18.316Z,7.37
2023-01-27T18:49:45.239Z,6.60
2023-01-27T18:52:14.791Z,7.00
2023-01-27T18:54:41.870Z,6.80
2023-01-27T18:57:11.624Z,6.97
2023-01-27T18:59:38.786Z,6.40
2023-01-27T19:02:13.798Z,6.77
2023-01-27T19:04:40.819Z,6.70
2023-01-27T19:07:16.125Z,5.90
2023-01-27T19:09:44.724Z,7.30
2023-01-27T19:12:12.099Z,7.63
2023-01-27T19:14:42.028Z,6.83
2023-01-27T19:17:23.137Z,7.70
2023-01-27T19:19:54.328Z,7.57
2023-01-27T19:22:24.518Z,7.37
2023-01-27T19:24:51.618Z,8.23
2023-01-27T19:27:22.256Z,8.30
2023-01-27T19:29:49.796Z,9.27
2023-01-27T19:32:16.856Z,7.83
2023-01-27T19:34:43.986Z,8.60
2023-01-27T19:37:19.010Z,9.40
2023-01-27T19:39:46.863Z,9.30
2023-01-27T19:42:15.548Z,8.63
2023-01-27T19:44:43.076Z,8.73
2023-01-27T19:47:15.772Z,8.20
2023-01-27T19:49:45.735Z,8.47
2023-01-27T19:52:12.801Z,9.33
2023-01-27T19:54:39.994Z,8.03
2023-01-27T19:57:15.445Z,8.70
2023-01-27T19:59:42.495Z,8.70
2023-01-27T20:02:12.894Z,8.67
2023-01-27T20:04:40.009Z,9.27
2023-01-27T20:07:08.978Z,7.23
2023-01-27T20:09:36.019Z,8.57
2023-01-27T20:12:03.132Z,10.70
2023-01-27T20:14:30.285Z,8.07
2023-01-27T20:16:58.673Z,8.87
2023-01-27T20:19:25.857Z,10.10
2023-01-27T20:21:54.213Z,8.43
2023-01-27T20:24:21.322Z,8.97
2023-01-27T20:26:51.269Z,9.37
2023-01-27T20:29:18.377Z,8.43
2023-01-27T20:31:45.939Z,9.87
2023-01-27T20:34:13.137Z,10.23
2023-01-27T20:36:40.294Z,9.87
2023-01-27T20:39:07.421Z,9.03
2023-01-27T20:41:36.972Z,9.67
2023-01-27T20:44:04.140Z,11.40
2023-01-27T20:46:31.330Z,8.90
2023-01-27T20:49:01.540Z,9.50
2023-01-27T20:51:28.665Z,11.10
2023-01-27T20:53:55.695Z,10.83
2023-01-27T20:56:24.122Z,10.00
2023-01-27T20:58:55.996Z,11.23
2023-01-27T21:01:24.166Z,12.90
2023-01-27T21:03:51.401Z,11.50
2023-01-27T21:06:21.820Z,10.67
2023-01-27T21:08:49.608Z,9.40
2023-01-27T21:11:18.802Z,10.80
2023-01-27T21:13:46.491Z,10.20
2023-01-27T21:16:13.718Z,9.77
2023-01-27T21:18:41.071Z,10.10
2023-01-27T21:21:08.081Z,9.70
2023-01-27T21:23:35.428Z,10.17
2023-01-27T21:26:10.645Z,8.67
2023-01-27T21:28:37.727Z,9.43
2023-01-27T21:31:17.083Z,9.30
2023-01-27T21:33:51.230Z,9.70
2023-01-27T21:36:19.105Z,7.70
2023-01-27T21:38:46.294Z,8.37
2023-01-27T21:41:39.776Z,9.03
2023-01-27T21:44:32.214Z,8.57
2023-01-27T21:46:59.304Z,9.00
2023-01-27T21:49:26.607Z,8.03
2023-01-27T21:51:53.760Z,8.60
2023-01-27T21:54:21.251Z,8.40
2023-01-27T21:56:48.270Z,10.37
2023-01-27T21:59:15.423Z,8.80
2023-01-27T22:01:42.479Z,9.63
2023-01-27T22:04:09.598Z,9.27
2023-01-27T22:06:37.734Z,7.97
2023-01-27T22:09:04.824Z,9.73
2023-01-27T22:11:32.018Z,9.10
2023-01-27T22:13:59.064Z,8.90
2023-01-27T22:16:26.211Z,9.30
2023-01-27T22:18:53.411Z,8.73
2023-01-27T22:21:20.524Z,8.23
2023-01-27T22:23:48.082Z,8.20
2023-01-27T22:26:15.733Z,8.47
2023-01-27T22:28:44.732Z,8.30
2023-01-27T22:31:11.849Z,9.30
2023-01-27T22:33:38.911Z,9.77
2023-01-27T22:36:07.362Z,10.10
2023-01-27T22:38:38.868Z,10.67
2023-01-27T22:41:06.229Z,8.13
2023-01-27T22:43:33.250Z,9.50
2023-01-27T22:46:02.504Z,9.97
2023-01-27T22:48:30.415Z,9.20
2023-01-27T22:50:58.921Z,9.50
2023-01-27T22:53:25.982Z,9.77
2023-01-27T22:56:00.360Z,9.90
2023-01-27T22:58:28.158Z,9.23
2023-01-27T23:00:55.538Z,9.97
2023-01-27T23:03:23.382Z,10.43
2023-01-27T23:05:50.474Z,9.90
2023-01-27T23:08:21.196Z,10.07
2023-01-27T23:10:49.209Z,9.67
2023-01-27T23:13:17.845Z,9.03
2023-01-27T23:15:45.429Z,9.47
2023-01-27T23:18:12.519Z,9.23
2023-01-27T23:20:40.621Z,10.27
2023-01-27T23:23:09.120Z,8.97
2023-01-27T23:25:41.192Z,9.97
2023-01-27T23:28:08.222Z,11.07
2023-01-27T23:30:35.400Z,10.77
2023-01-27T23:33:02.538Z,11.07
2023-01-27T23:35:29.521Z,11.40
2023-01-27T23:37:56.560Z,11.80
2023-01-27T23:40:23.617Z,10.60
2023-01-27T23:42:50.663Z,11.40
2023-01-27T23:45:17.720Z,12.00
2023-01-27T23:47:44.754Z,11.00
2023-01-27T23:50:11.965Z,11.00
2023-01-27T23:52:39.012Z,11.17
2023-01-27T23:55:06.536Z,10.67
2023-01-27T23:57:33.601Z,12.00
